sensor_id;sensor_type;location;lat;lon;timestamp;P1;durP1;ratioP1;P2;durP2;ratioP2
41343;SDS011;27089;50.022;7.604;2023-02-21T00:01:50;14.03;;;8.30;;
41343;SDS011;27089;50.022;7.604;2023-02-21T00:04:34;12.40;;;7.00;;
41343;SDS011;27089;50.022;7.604;2023-02-21T00:07:20;12.63;;;7.43;;
41343;SDS011;27089;50.022;7.604;2023-02-21T00:10:05;15.20;;;8.47;;
41343;SDS011;27089;50.022;7.604;2023-02-21T00:12:50;16.67;;;9.23;;
41343;SDS011;27089;50.022;7.604;2023-02-21T00:15:35;14.87;;;8.37;;
41343;SDS011;27089;50.022;7.604;2023-02-21T00:18:19;15.07;;;9.07;;
41343;SDS011;27089;50.022;7.604;2023-02-21T00:21:04;15.67;;;8.70;;
41343;SDS011;27089;50.022;7.604;2023-02-21T00:23:50;17.23;;;8.43;;
41343;SDS011;27089;50.022;7.604;2023-02-21T00:26:35;17.27;;;9.43;;
41343;SDS011;27089;50.022;7.604;2023-02-21T00:29:20;14.43;;;8.90;;
41343;SDS011;27089;50.022;7.604;2023-02-21T00:32:04;16.70;;;10.07;;
41343;SDS011;27089;50.022;7.604;2023-02-21T00:34:48;20.73;;;11.73;;
41343;SDS011;27089;50.022;7.604;2023-02-21T00:37:33;18.13;;;10.30;;
41343;SDS011;27089;50.022;7.604;2023-02-21T00:40:19;17.40;;;10.27;;
41343;SDS011;27089;50.022;7.604;2023-02-21T00:43:04;17.40;;;10.43;;
41343;SDS011;27089;50.022;7.604;2023-02-21T00:45:48;17.83;;;10.10;;
41343;SDS011;27089;50.022;7.604;2023-02-21T00:48:33;17.80;;;10.63;;
41343;SDS011;27089;50.022;7.604;2023-02-21T00:51:17;17.07;;;9.20;;
41343;SDS011;27089;50.022;7.604;2023-02-21T00:54:01;15.73;;;9.47;;
41343;SDS011;27089;50.022;7.604;2023-02-21T00:56:47;21.30;;;10.50;;
41343;SDS011;27089;50.022;7.604;2023-02-21T00:59:32;14.90;;;9.80;;
41343;SDS011;27089;50.022;7.604;2023-02-21T01:02:16;16.93;;;10.33;;
41343;SDS011;27089;50.022;7.604;2023-02-21T01:05:00;15.83;;;8.90;;
41343;SDS011;27089;50.022;7.604;2023-02-21T01:07:45;16.70;;;9.77;;
41343;SDS011;27089;50.022;7.604;2023-02-21T01:10:29;15.43;;;9.80;;
41343;SDS011;27089;50.022;7.604;2023-02-21T01:13:15;15.13;;;9.57;;
41343;SDS011;27089;50.022;7.604;2023-02-21T01:16:00;19.40;;;11.27;;
41343;SDS011;27089;50.022;7.604;2023-02-21T01:18:44;15.23;;;10.27;;
41343;SDS011;27089;50.022;7.604;2023-02-21T01:21:28;18.93;;;11.73;;
41343;SDS011;27089;50.022;7.604;2023-02-21T01:24:13;19.50;;;10.60;;
41343;SDS011;27089;50.022;7.604;2023-02-21T01:26:58;17.37;;;10.73;;
41343;SDS011;27089;50.022;7.604;2023-02-21T01:29:44;19.73;;;10.60;;
41343;SDS011;27089;50.022;7.604;2023-02-21T01:32:30;17.80;;;10.30;;
41343;SDS011;27089;50.022;7.604;2023-02-21T01:35:14;21.73;;;10.73;;
41343;SDS011;27089;50.022;7.604;2023-02-21T01:37:58;18.07;;;10.70;;
41343;SDS011;27089;50.022;7.604;2023-02-21T01:40:43;19.30;;;10.30;;
41343;SDS011;27089;50.022;7.604;2023-02-21T01:43:27;17.43;;;10.90;;
41343;SDS011;27089;50.022;7.604;2023-02-21T01:46:14;23.10;;;12.10;;
41343;SDS011;27089;50.022;7.604;2023-02-21T01:49:01;18.07;;;11.03;;
41343;SDS011;27089;50.022;7.604;2023-02-21T01:51:49;19.60;;;10.90;;
41343;SDS011;27089;50.022;7.604;2023-02-21T01:54:35;18.03;;;10.27;;
41343;SDS011;27089;50.022;7.604;2023-02-21T01:57:23;19.63;;;11.53;;
41343;SDS011;27089;50.022;7.604;2023-02-21T02:00:09;19.60;;;10.70;;
41343;SDS011;27089;50.022;7.604;2023-02-21T02:02:58;20.70;;;10.47;;
41343;SDS011;27089;50.022;7.604;2023-02-21T02:05:45;19.10;;;11.37;;
41343;SDS011;27089;50.022;7.604;2023-02-21T02:08:32;19.67;;;10.87;;
41343;SDS011;27089;50.022;7.604;2023-02-21T02:11:34;17.90;;;10.23;;
41343;SDS011;27089;50.022;7.604;2023-02-21T02:14:36;14.87;;;9.70;;
41343;SDS011;27089;50.022;7.604;2023-02-21T02:17:16;17.40;;;10.73;;
41343;SDS011;27089;50.022;7.604;2023-02-21T02:20:01;16.87;;;10.00;;
41343;SDS011;27089;50.022;7.604;2023-02-21T02:22:54;18.20;;;10.23;;
41343;SDS011;27089;50.022;7.604;2023-02-21T02:25:54;17.93;;;9.40;;
41343;SDS011;27089;50.022;7.604;2023-02-21T02:28:38;20.90;;;10.80;;
41343;SDS011;27089;50.022;7.604;2023-02-21T02:31:27;18.70;;;10.90;;
41343;SDS011;27089;50.022;7.604;2023-02-21T02:34:24;17.30;;;10.27;;
41343;SDS011;27089;50.022;7.604;2023-02-21T02:37:04;15.40;;;9.90;;
41343;SDS011;27089;50.022;7.604;2023-02-21T02:39:39;18.87;;;10.03;;
41343;SDS011;27089;50.022;7.604;2023-02-21T02:42:15;21.03;;;10.53;;
41343;SDS011;27089;50.022;7.604;2023-02-21T02:44:52;13.53;;;9.63;;
41343;SDS011;27089;50.022;7.604;2023-02-21T02:47:23;21.37;;;9.77;;
41343;SDS011;27089;50.022;7.604;2023-02-21T02:49:55;16.93;;;9.83;;
41343;SDS011;27089;50.022;7.604;2023-02-21T02:52:24;16.13;;;9.70;;
41343;SDS011;27089;50.022;7.604;2023-02-21T02:54:57;16.77;;;9.67;;
41343;SDS011;27089;50.022;7.604;2023-02-21T02:57:25;15.20;;;9.93;;
41343;SDS011;27089;50.022;7.604;2023-02-21T03:00:03;16.53;;;10.57;;
41343;SDS011;27089;50.022;7.604;2023-02-21T03:02:35;17.67;;;10.50;;
41343;SDS011;27089;50.022;7.604;2023-02-21T03:05:16;17.77;;;10.70;;
41343;SDS011;27089;50.022;7.604;2023-02-21T03:07:55;18.23;;;11.97;;
41343;SDS011;27089;50.022;7.604;2023-02-21T03:10:28;20.43;;;13.00;;
41343;SDS011;27089;50.022;7.604;2023-02-21T03:13:08;19.37;;;12.07;;
41343;SDS011;27089;50.022;7.604;2023-02-21T03:15:43;20.63;;;13.70;;
41343;SDS011;27089;50.022;7.604;2023-02-21T03:18:15;21.67;;;12.93;;
41343;SDS011;27089;50.022;7.604;2023-02-21T03:20:48;27.70;;;13.13;;
41343;SDS011;27089;50.022;7.604;2023-02-21T03:23:19;27.47;;;15.53;;
41343;SDS011;27089;50.022;7.604;2023-02-21T03:25:49;28.33;;;14.80;;
41343;SDS011;27089;50.022;7.604;2023-02-21T03:28:17;25.93;;;14.00;;
41343;SDS011;27089;50.022;7.604;2023-02-21T03:30:45;23.37;;;13.23;;
41343;SDS011;27089;50.022;7.604;2023-02-21T03:33:15;24.57;;;14.27;;
41343;SDS011;27089;50.022;7.604;2023-02-21T03:35:42;24.20;;;14.30;;
41343;SDS011;27089;50.022;7.604;2023-02-21T03:38:11;22.53;;;13.57;;
41343;SDS011;27089;50.022;7.604;2023-02-21T03:40:38;23.90;;;13.23;;
41343;SDS011;27089;50.022;7.604;2023-02-21T03:43:05;21.83;;;13.43;;
41343;SDS011;27089;50.022;7.604;2023-02-21T03:45:32;21.40;;;14.00;;
41343;SDS011;27089;50.022;7.604;2023-02-21T03:47:59;23.50;;;13.20;;
41343;SDS011;27089;50.022;7.604;2023-02-21T03:50:27;25.23;;;13.33;;
41343;SDS011;27089;50.022;7.604;2023-02-21T03:52:54;23.03;;;13.77;;
41343;SDS011;27089;50.022;7.604;2023-02-21T03:55:22;19.47;;;12.47;;
41343;SDS011;27089;50.022;7.604;2023-02-21T03:57:49;18.53;;;11.60;;
41343;SDS011;27089;50.022;7.604;2023-02-21T04:00:16;22.70;;;12.43;;
41343;SDS011;27089;50.022;7.604;2023-02-21T04:02:43;20.87;;;11.30;;
41343;SDS011;27089;50.022;7.604;2023-02-21T04:05:10;19.13;;;11.37;;
41343;SDS011;27089;50.022;7.604;2023-02-21T04:07:37;22.10;;;13.13;;
41343;SDS011;27089;50.022;7.604;2023-02-21T04:10:04;21.97;;;12.13;;
41343;SDS011;27089;50.022;7.604;2023-02-21T04:12:33;22.73;;;11.63;;
41343;SDS011;27089;50.022;7.604;2023-02-21T04:15:00;19.73;;;12.07;;
41343;SDS011;27089;50.022;7.604;2023-02-21T04:17:27;21.23;;;11.83;;
41343;SDS011;27089;50.022;7.604;2023-02-21T04:19:54;25.63;;;13.97;;
41343;SDS011;27089;50.022;7.604;2023-02-21T04:22:21;23.47;;;13.80;;
41343;SDS011;27089;50.022;7.604;2023-02-21T04:24:48;26.17;;;13.00;;
41343;SDS011;27089;50.022;7.604;2023-02-21T04:27:15;22.60;;;13.20;;
41343;SDS011;27089;50.022;7.604;2023-02-21T04:29:43;20.50;;;12.73;;
41343;SDS011;27089;50.022;7.604;2023-02-21T04:32:10;24.63;;;11.73;;
41343;SDS011;27089;50.022;7.604;2023-02-21T04:34:37;23.73;;;13.37;;
41343;SDS011;27089;50.022;7.604;2023-02-21T04:37:04;24.13;;;13.13;;
41343;SDS011;27089;50.022;7.604;2023-02-21T04:39:31;30.10;;;14.40;;
41343;SDS011;27089;50.022;7.604;2023-02-21T04:41:58;28.83;;;13.40;;
41343;SDS011;27089;50.022;7.604;2023-02-21T04:44:25;25.87;;;13.57;;
41343;SDS011;27089;50.022;7.604;2023-02-21T04:46:54;24.63;;;13.20;;
41343;SDS011;27089;50.022;7.604;2023-02-21T04:49:21;25.87;;;13.80;;
41343;SDS011;27089;50.022;7.604;2023-02-21T04:51:50;23.67;;;12.57;;
41343;SDS011;27089;50.022;7.604;2023-02-21T04:54:17;23.00;;;13.10;;
41343;SDS011;27089;50.022;7.604;2023-02-21T04:56:45;20.53;;;11.60;;
41343;SDS011;27089;50.022;7.604;2023-02-21T04:59:12;23.97;;;12.47;;
41343;SDS011;27089;50.022;7.604;2023-02-21T05:01:39;21.50;;;12.23;;
41343;SDS011;27089;50.022;7.604;2023-02-21T05:04:07;20.77;;;12.73;;
41343;SDS011;27089;50.022;7.604;2023-02-21T05:06:34;21.43;;;12.67;;
41343;SDS011;27089;50.022;7.604;2023-02-21T05:09:01;22.90;;;11.90;;
41343;SDS011;27089;50.022;7.604;2023-02-21T05:11:31;23.67;;;12.70;;
41343;SDS011;27089;50.022;7.604;2023-02-21T05:13:59;20.83;;;11.30;;
41343;SDS011;27089;50.022;7.604;2023-02-21T05:16:26;22.73;;;11.80;;
41343;SDS011;27089;50.022;7.604;2023-02-21T05:18:53;20.20;;;11.00;;
41343;SDS011;27089;50.022;7.604;2023-02-21T05:21:22;21.73;;;11.13;;
41343;SDS011;27089;50.022;7.604;2023-02-21T05:23:49;22.97;;;12.50;;
41343;SDS011;27089;50.022;7.604;2023-02-21T05:26:23;20.97;;;12.53;;
41343;SDS011;27089;50.022;7.604;2023-02-21T05:28:51;20.10;;;11.67;;
41343;SDS011;27089;50.022;7.604;2023-02-21T05:31:19;19.63;;;11.80;;
41343;SDS011;27089;50.022;7.604;2023-02-21T05:33:46;25.43;;;12.60;;
41343;SDS011;27089;50.022;7.604;2023-02-21T05:36:13;19.93;;;11.93;;
41343;SDS011;27089;50.022;7.604;2023-02-21T05:38:46;27.83;;;13.80;;
41343;SDS011;27089;50.022;7.604;2023-02-21T05:41:15;19.70;;;11.87;;
41343;SDS011;27089;50.022;7.604;2023-02-21T05:43:43;19.10;;;12.27;;
41343;SDS011;27089;50.022;7.604;2023-02-21T05:46:20;21.50;;;11.47;;
41343;SDS011;27089;50.022;7.604;2023-02-21T05:48:49;20.17;;;10.73;;
41343;SDS011;27089;50.022;7.604;2023-02-21T05:51:17;18.23;;;11.10;;
41343;SDS011;27089;50.022;7.604;2023-02-21T05:53:45;20.83;;;9.97;;
41343;SDS011;27089;50.022;7.604;2023-02-21T05:56:13;20.60;;;11.53;;
41343;SDS011;27089;50.022;7.604;2023-02-21T05:58:42;20.40;;;11.23;;
41343;SDS011;27089;50.022;7.604;2023-02-21T06:01:09;19.17;;;11.83;;
41343;SDS011;27089;50.022;7.604;2023-02-21T06:03:36;17.97;;;10.73;;
41343;SDS011;27089;50.022;7.604;2023-02-21T06:06:03;18.33;;;10.63;;
41343;SDS011;27089;50.022;7.604;2023-02-21T06:08:40;19.43;;;11.10;;
41343;SDS011;27089;50.022;7.604;2023-02-21T06:11:09;20.60;;;10.57;;
41343;SDS011;27089;50.022;7.604;2023-02-21T06:13:36;17.47;;;10.10;;
41343;SDS011;27089;50.022;7.604;2023-02-21T06:16:04;20.73;;;10.67;;
41343;SDS011;27089;50.022;7.604;2023-02-21T06:18:31;16.63;;;9.57;;
41343;SDS011;27089;50.022;7.604;2023-02-21T06:20:58;15.80;;;9.23;;
41343;SDS011;27089;50.022;7.604;2023-02-21T06:23:25;18.53;;;9.77;;
41343;SDS011;27089;50.022;7.604;2023-02-21T06:25:52;21.50;;;11.17;;
41343;SDS011;27089;50.022;7.604;2023-02-21T06:28:20;21.57;;;11.60;;
41343;SDS011;27089;50.022;7.604;2023-02-21T06:30:47;21.37;;;11.20;;
41343;SDS011;27089;50.022;7.604;2023-02-21T06:33:14;19.10;;;10.47;;
41343;SDS011;27089;50.022;7.604;2023-02-21T06:35:41;22.93;;;12.30;;
41343;SDS011;27089;50.022;7.604;2023-02-21T06:38:08;24.07;;;13.00;;
41343;SDS011;27089;50.022;7.604;2023-02-21T06:40:35;23.83;;;12.80;;
41343;SDS011;27089;50.022;7.604;2023-02-21T06:43:02;23.83;;;12.57;;
41343;SDS011;27089;50.022;7.604;2023-02-21T06:45:31;24.13;;;13.80;;
41343;SDS011;27089;50.022;7.604;2023-02-21T06:47:57;20.50;;;12.93;;
41343;SDS011;27089;50.022;7.604;2023-02-21T06:50:24;22.97;;;12.53;;
41343;SDS011;27089;50.022;7.604;2023-02-21T06:52:51;21.03;;;12.13;;
41343;SDS011;27089;50.022;7.604;2023-02-21T06:55:19;24.50;;;12.00;;
41343;SDS011;27089;50.022;7.604;2023-02-21T06:57:46;21.53;;;12.43;;
41343;SDS011;27089;50.022;7.604;2023-02-21T07:00:14;64.23;;;29.50;;
41343;SDS011;27089;50.022;7.604;2023-02-21T07:02:43;21.07;;;12.33;;
41343;SDS011;27089;50.022;7.604;2023-02-21T07:05:10;26.17;;;11.13;;
41343;SDS011;27089;50.022;7.604;2023-02-21T07:07:37;18.03;;;10.67;;
41343;SDS011;27089;50.022;7.604;2023-02-21T07:10:04;20.90;;;11.17;;
41343;SDS011;27089;50.022;7.604;2023-02-21T07:12:31;23.93;;;12.07;;
41343;SDS011;27089;50.022;7.604;2023-02-21T07:14:58;17.03;;;10.67;;
41343;SDS011;27089;50.022;7.604;2023-02-21T07:17:26;19.27;;;11.33;;
41343;SDS011;27089;50.022;7.604;2023-02-21T07:19:54;22.70;;;11.60;;
41343;SDS011;27089;50.022;7.604;2023-02-21T07:22:21;20.00;;;11.87;;
41343;SDS011;27089;50.022;7.604;2023-02-21T07:24:50;19.77;;;11.37;;
41343;SDS011;27089;50.022;7.604;2023-02-21T07:27:18;15.50;;;10.40;;
41343;SDS011;27089;50.022;7.604;2023-02-21T07:29:45;20.83;;;10.73;;
41343;SDS011;27089;50.022;7.604;2023-02-21T07:32:13;20.07;;;10.90;;
41343;SDS011;27089;50.022;7.604;2023-02-21T07:34:40;18.70;;;10.73;;
41343;SDS011;27089;50.022;7.604;2023-02-21T07:37:08;16.57;;;10.60;;
41343;SDS011;27089;50.022;7.604;2023-02-21T07:39:36;19.93;;;11.73;;
41343;SDS011;27089;50.022;7.604;2023-02-21T07:42:03;17.47;;;11.13;;
41343;SDS011;27089;50.022;7.604;2023-02-21T07:44:32;21.80;;;12.07;;
41343;SDS011;27089;50.022;7.604;2023-02-21T07:46:59;22.47;;;12.50;;
41343;SDS011;27089;50.022;7.604;2023-02-21T07:49:26;22.27;;;11.83;;
41343;SDS011;27089;50.022;7.604;2023-02-21T07:51:53;21.43;;;11.60;;
41343;SDS011;27089;50.022;7.604;2023-02-21T07:54:21;19.90;;;11.37;;
41343;SDS011;27089;50.022;7.604;2023-02-21T07:56:49;20.43;;;10.73;;
41343;SDS011;27089;50.022;7.604;2023-02-21T07:59:16;18.50;;;11.67;;
41343;SDS011;27089;50.022;7.604;2023-02-21T08:01:43;19.00;;;10.80;;
41343;SDS011;27089;50.022;7.604;2023-02-21T08:04:11;17.33;;;10.97;;
41343;SDS011;27089;50.022;7.604;2023-02-21T08:06:39;17.93;;;11.27;;
41343;SDS011;27089;50.022;7.604;2023-02-21T08:09:06;17.37;;;10.80;;
41343;SDS011;27089;50.022;7.604;2023-02-21T08:11:34;15.23;;;9.57;;
41343;SDS011;27089;50.022;7.604;2023-02-21T08:14:01;27.73;;;18.27;;
41343;SDS011;27089;50.022;7.604;2023-02-21T08:16:28;22.47;;;13.80;;
41343;SDS011;27089;50.022;7.604;2023-02-21T08:18:55;22.03;;;12.80;;
41343;SDS011;27089;50.022;7.604;2023-02-21T08:21:22;21.17;;;14.33;;
41343;SDS011;27089;50.022;7.604;2023-02-21T08:23:50;23.73;;;16.20;;
41343;SDS011;27089;50.022;7.604;2023-02-21T08:26:18;22.63;;;15.00;;
41343;SDS011;27089;50.022;7.604;2023-02-21T08:28:47;21.53;;;13.40;;
41343;SDS011;27089;50.022;7.604;2023-02-21T08:31:13;20.40;;;13.03;;
41343;SDS011;27089;50.022;7.604;2023-02-21T08:33:40;19.00;;;12.20;;
41343;SDS011;27089;50.022;7.604;2023-02-21T08:36:07;19.27;;;11.07;;
41343;SDS011;27089;50.022;7.604;2023-02-21T08:38:34;18.73;;;11.70;;
41343;SDS011;27089;50.022;7.604;2023-02-21T08:41:02;19.57;;;12.00;;
41343;SDS011;27089;50.022;7.604;2023-02-21T08:43:30;20.30;;;11.77;;
41343;SDS011;27089;50.022;7.604;2023-02-21T08:45:58;19.97;;;11.80;;
41343;SDS011;27089;50.022;7.604;2023-02-21T08:48:26;20.50;;;11.53;;
41343;SDS011;27089;50.022;7.604;2023-02-21T08:50:53;21.20;;;11.53;;
41343;SDS011;27089;50.022;7.604;2023-02-21T08:53:20;19.43;;;11.83;;
41343;SDS011;27089;50.022;7.604;2023-02-21T08:55:47;18.97;;;12.17;;
41343;SDS011;27089;50.022;7.604;2023-02-21T08:58:15;17.27;;;11.13;;
41343;SDS011;27089;50.022;7.604;2023-02-21T09:00:42;18.93;;;11.13;;
41343;SDS011;27089;50.022;7.604;2023-02-21T09:03:10;17.07;;;10.77;;
41343;SDS011;27089;50.022;7.604;2023-02-21T09:05:37;15.63;;;10.17;;
41343;SDS011;27089;50.022;7.604;2023-02-21T09:08:04;17.63;;;10.17;;
41343;SDS011;27089;50.022;7.604;2023-02-21T09:10:34;19.00;;;10.90;;
41343;SDS011;27089;50.022;7.604;2023-02-21T09:13:02;18.40;;;10.57;;
41343;SDS011;27089;50.022;7.604;2023-02-21T09:15:29;16.73;;;11.00;;
41343;SDS011;27089;50.022;7.604;2023-02-21T09:17:57;13.13;;;8.27;;
41343;SDS011;27089;50.022;7.604;2023-02-21T09:20:26;13.87;;;9.00;;
41343;SDS011;27089;50.022;7.604;2023-02-21T09:22:53;15.10;;;8.80;;
41343;SDS011;27089;50.022;7.604;2023-02-21T09:25:21;13.23;;;8.67;;
41343;SDS011;27089;50.022;7.604;2023-02-21T09:27:50;14.47;;;8.77;;
41343;SDS011;27089;50.022;7.604;2023-02-21T09:30:18;14.23;;;8.23;;
41343;SDS011;27089;50.022;7.604;2023-02-21T09:32:49;13.75;;;8.98;;
41343;SDS011;27089;50.022;7.604;2023-02-21T09:35:17;12.00;;;8.23;;
41343;SDS011;27089;50.022;7.604;2023-02-21T09:37:45;12.80;;;8.98;;
41343;SDS011;27089;50.022;7.604;2023-02-21T09:40:15;10.48;;;7.55;;
41343;SDS011;27089;50.022;7.604;2023-02-21T09:42:49;11.13;;;7.70;;
41343;SDS011;27089;50.022;7.604;2023-02-21T09:45:18;10.68;;;7.63;;
41343;SDS011;27089;50.022;7.604;2023-02-21T09:47:47;10.15;;;7.72;;
41343;SDS011;27089;50.022;7.604;2023-02-21T09:50:17;12.07;;;8.43;;
41343;SDS011;27089;50.022;7.604;2023-02-21T09:52:53;12.43;;;8.63;;
41343;SDS011;27089;50.022;7.604;2023-02-21T09:55:26;11.18;;;8.45;;
41343;SDS011;27089;50.022;7.604;2023-02-21T09:57:55;10.30;;;8.27;;
41343;SDS011;27089;50.022;7.604;2023-02-21T10:00:23;10.73;;;8.20;;
41343;SDS011;27089;50.022;7.604;2023-02-21T10:02:58;10.40;;;8.13;;
41343;SDS011;27089;50.022;7.604;2023-02-21T10:05:38;11.35;;;7.82;;
41343;SDS011;27089;50.022;7.604;2023-02-21T10:08:13;9.65;;;7.78;;
41343;SDS011;27089;50.022;7.604;2023-02-21T10:10:47;10.02;;;7.45;;
41343;SDS011;27089;50.022;7.604;2023-02-21T10:13:23;12.10;;;8.30;;
41343;SDS011;27089;50.022;7.604;2023-02-21T10:16:02;9.73;;;8.05;;
41343;SDS011;27089;50.022;7.604;2023-02-21T10:18:34;13.05;;;8.73;;
41343;SDS011;27089;50.022;7.604;2023-02-21T10:21:09;11.20;;;7.57;;
41343;SDS011;27089;50.022;7.604;2023-02-21T10:23:44;10.52;;;8.13;;
41343;SDS011;27089;50.022;7.604;2023-02-21T10:26:13;9.48;;;7.13;;
41343;SDS011;27089;50.022;7.604;2023-02-21T10:28:43;9.70;;;7.47;;
41343;SDS011;27089;50.022;7.604;2023-02-21T10:31:11;10.32;;;7.47;;
41343;SDS011;27089;50.022;7.604;2023-02-21T10:33:43;9.02;;;6.72;;
41343;SDS011;27089;50.022;7.604;2023-02-21T10:36:11;9.48;;;7.47;;
41343;SDS011;27089;50.022;7.604;2023-02-21T10:38:42;9.65;;;7.40;;
41343;SDS011;27089;50.022;7.604;2023-02-21T10:41:18;9.32;;;7.45;;
41343;SDS011;27089;50.022;7.604;2023-02-21T10:43:47;11.85;;;7.95;;
41343;SDS011;27089;50.022;7.604;2023-02-21T10:46:17;10.07;;;7.60;;
41343;SDS011;27089;50.022;7.604;2023-02-21T10:48:49;11.63;;;7.55;;
41343;SDS011;27089;50.022;7.604;2023-02-21T10:51:27;9.55;;;6.93;;
41343;SDS011;27089;50.022;7.604;2023-02-21T10:54:17;9.20;;;6.85;;
41343;SDS011;27089;50.022;7.604;2023-02-21T10:56:46;11.15;;;6.68;;
41343;SDS011;27089;50.022;7.604;2023-02-21T10:59:18;10.27;;;6.78;;
41343;SDS011;27089;50.022;7.604;2023-02-21T11:01:47;11.95;;;7.85;;
41343;SDS011;27089;50.022;7.604;2023-02-21T11:04:25;8.25;;;6.65;;
41343;SDS011;27089;50.022;7.604;2023-02-21T11:06:56;9.18;;;6.68;;
41343;SDS011;27089;50.022;7.604;2023-02-21T11:09:35;9.45;;;6.88;;
41343;SDS011;27089;50.022;7.604;2023-02-21T11:12:05;8.90;;;6.75;;
41343;SDS011;27089;50.022;7.604;2023-02-21T11:14:44;8.30;;;6.05;;
41343;SDS011;27089;50.022;7.604;2023-02-21T11:17:30;7.63;;;5.85;;
41343;SDS011;27089;50.022;7.604;2023-02-21T11:20:02;8.55;;;6.40;;
41343;SDS011;27089;50.022;7.604;2023-02-21T11:22:40;8.57;;;5.85;;
41343;SDS011;27089;50.022;7.604;2023-02-21T11:25:15;8.10;;;5.07;;
41343;SDS011;27089;50.022;7.604;2023-02-21T11:27:58;6.22;;;5.05;;
41343;SDS011;27089;50.022;7.604;2023-02-21T11:30:30;8.88;;;5.32;;
41343;SDS011;27089;50.022;7.604;2023-02-21T11:32:59;6.97;;;5.20;;
41343;SDS011;27089;50.022;7.604;2023-02-21T11:35:29;7.43;;;4.43;;
41343;SDS011;27089;50.022;7.604;2023-02-21T11:38:00;5.93;;;4.20;;
41343;SDS011;27089;50.022;7.604;2023-02-21T11:40:33;4.23;;;3.70;;
41343;SDS011;27089;50.022;7.604;2023-02-21T11:43:11;4.20;;;3.50;;
41343;SDS011;27089;50.022;7.604;2023-02-21T11:45:56;6.20;;;3.80;;
41343;SDS011;27089;50.022;7.604;2023-02-21T11:48:42;5.77;;;3.83;;
41343;SDS011;27089;50.022;7.604;2023-02-21T11:51:16;4.57;;;3.40;;
41343;SDS011;27089;50.022;7.604;2023-02-21T11:53:51;5.23;;;3.10;;
41343;SDS011;27089;50.022;7.604;2023-02-21T11:56:23;4.97;;;3.40;;
41343;SDS011;27089;50.022;7.604;2023-02-21T11:58:59;3.93;;;2.67;;
41343;SDS011;27089;50.022;7.604;2023-02-21T12:01:33;4.83;;;3.27;;
41343;SDS011;27089;50.022;7.604;2023-02-21T12:04:13;5.00;;;3.27;;
41343;SDS011;27089;50.022;7.604;2023-02-21T12:06:50;3.47;;;2.73;;
41343;SDS011;27089;50.022;7.604;2023-02-21T12:09:26;4.43;;;3.33;;
41343;SDS011;27089;50.022;7.604;2023-02-21T12:12:09;4.83;;;3.30;;
41343;SDS011;27089;50.022;7.604;2023-02-21T12:14:46;5.03;;;3.27;;
41343;SDS011;27089;50.022;7.604;2023-02-21T12:17:24;5.43;;;3.30;;
41343;SDS011;27089;50.022;7.604;2023-02-21T12:20:19;3.83;;;2.70;;
41343;SDS011;27089;50.022;7.604;2023-02-21T12:22:57;4.60;;;3.10;;
41343;SDS011;27089;50.022;7.604;2023-02-21T12:25:44;8.67;;;3.83;;
41343;SDS011;27089;50.022;7.604;2023-02-21T12:28:28;5.87;;;3.83;;
41343;SDS011;27089;50.022;7.604;2023-02-21T12:31:14;5.60;;;3.50;;
41343;SDS011;27089;50.022;7.604;2023-02-21T12:33:55;4.17;;;2.70;;
41343;SDS011;27089;50.022;7.604;2023-02-21T12:36:37;4.90;;;3.30;;
41343;SDS011;27089;50.022;7.604;2023-02-21T12:39:26;4.53;;;2.77;;
41343;SDS011;27089;50.022;7.604;2023-02-21T12:42:10;4.93;;;2.80;;
41343;SDS011;27089;50.022;7.604;2023-02-21T12:44:53;5.13;;;3.13;;
41343;SDS011;27089;50.022;7.604;2023-02-21T12:47:29;5.07;;;2.50;;
41343;SDS011;27089;50.022;7.604;2023-02-21T12:49:59;4.80;;;2.87;;
41343;SDS011;27089;50.022;7.604;2023-02-21T12:52:33;6.23;;;3.10;;
41343;SDS011;27089;50.022;7.604;2023-02-21T12:55:05;4.67;;;2.60;;
41343;SDS011;27089;50.022;7.604;2023-02-21T12:57:45;4.13;;;2.97;;
41343;SDS011;27089;50.022;7.604;2023-02-21T13:00:19;4.43;;;2.53;;
41343;SDS011;27089;50.022;7.604;2023-02-21T13:02:51;3.37;;;2.77;;
41343;SDS011;27089;50.022;7.604;2023-02-21T13:05:27;5.43;;;2.70;;
41343;SDS011;27089;50.022;7.604;2023-02-21T13:08:04;3.80;;;2.67;;
41343;SDS011;27089;50.022;7.604;2023-02-21T13:10:47;4.83;;;2.90;;
41343;SDS011;27089;50.022;7.604;2023-02-21T13:13:18;2.97;;;2.30;;
41343;SDS011;27089;50.022;7.604;2023-02-21T13:15:51;3.33;;;2.40;;
41343;SDS011;27089;50.022;7.604;2023-02-21T13:18:24;3.30;;;2.70;;
41343;SDS011;27089;50.022;7.604;2023-02-21T13:20:56;4.27;;;2.57;;
41343;SDS011;27089;50.022;7.604;2023-02-21T13:23:40;3.33;;;2.33;;
41343;SDS011;27089;50.022;7.604;2023-02-21T13:29:13;3.77;;;2.67;;
41343;SDS011;27089;50.022;7.604;2023-02-21T13:31:45;3.43;;;2.43;;
41343;SDS011;27089;50.022;7.604;2023-02-21T13:34:17;4.70;;;2.50;;
41343;SDS011;27089;50.022;7.604;2023-02-21T13:36:48;5.00;;;2.77;;
41343;SDS011;27089;50.022;7.604;2023-02-21T13:39:16;4.20;;;2.67;;
41343;SDS011;27089;50.022;7.604;2023-02-21T13:41:47;4.33;;;2.70;;
41343;SDS011;27089;50.022;7.604;2023-02-21T13:44:17;7.70;;;3.30;;
41343;SDS011;27089;50.022;7.604;2023-02-21T13:47:07;3.50;;;2.53;;
41343;SDS011;27089;50.022;7.604;2023-02-21T13:52:24;3.97;;;2.70;;
41343;SDS011;27089;50.022;7.604;2023-02-21T14:10:35;7.07;;;3.20;;
41343;SDS011;27089;50.022;7.604;2023-02-21T14:13:06;4.97;;;3.33;;
41343;SDS011;27089;50.022;7.604;2023-02-21T14:15:45;5.13;;;2.60;;
41343;SDS011;27089;50.022;7.604;2023-02-21T14:18:15;3.87;;;2.53;;
41343;SDS011;27089;50.022;7.604;2023-02-21T14:20:48;3.97;;;2.50;;
41343;SDS011;27089;50.022;7.604;2023-02-21T14:23:19;3.93;;;2.27;;
41343;SDS011;27089;50.022;7.604;2023-02-21T14:25:54;2.47;;;1.87;;
41343;SDS011;27089;50.022;7.604;2023-02-21T14:31:46;2.70;;;1.37;;
41343;SDS011;27089;50.022;7.604;2023-02-21T14:34:16;3.27;;;1.70;;
41343;SDS011;27089;50.022;7.604;2023-02-21T14:36:48;2.50;;;1.50;;
41343;SDS011;27089;50.022;7.604;2023-02-21T14:39:17;4.10;;;1.47;;
41343;SDS011;27089;50.022;7.604;2023-02-21T14:41:56;2.40;;;1.13;;
41343;SDS011;27089;50.022;7.604;2023-02-21T14:44:34;1.40;;;0.77;;
41343;SDS011;27089;50.022;7.604;2023-02-21T14:47:16;1.20;;;0.80;;
41343;SDS011;27089;50.022;7.604;2023-02-21T14:50:03;1.07;;;0.83;;
41343;SDS011;27089;50.022;7.604;2023-02-21T14:52:58;0.90;;;0.60;;
41343;SDS011;27089;50.022;7.604;2023-02-21T14:56:02;0.90;;;0.50;;
41343;SDS011;27089;50.022;7.604;2023-02-21T14:59:16;0.80;;;0.67;;
41343;SDS011;27089;50.022;7.604;2023-02-21T15:01:57;1.00;;;0.67;;
41343;SDS011;27089;50.022;7.604;2023-02-21T15:04:32;1.07;;;0.90;;
41343;SDS011;27089;50.022;7.604;2023-02-21T15:07:07;1.37;;;0.73;;
41343;SDS011;27089;50.022;7.604;2023-02-21T15:09:42;1.63;;;0.90;;
41343;SDS011;27089;50.022;7.604;2023-02-21T15:12:12;0.60;;;0.50;;
41343;SDS011;27089;50.022;7.604;2023-02-21T15:14:46;0.70;;;0.60;;
41343;SDS011;27089;50.022;7.604;2023-02-21T15:17:17;1.57;;;0.80;;
41343;SDS011;27089;50.022;7.604;2023-02-21T15:19:46;1.23;;;0.70;;
41343;SDS011;27089;50.022;7.604;2023-02-21T15:22:26;1.30;;;0.90;;
41343;SDS011;27089;50.022;7.604;2023-02-21T15:24:57;0.77;;;0.70;;
41343;SDS011;27089;50.022;7.604;2023-02-21T15:27:27;1.40;;;0.80;;
41343;SDS011;27089;50.022;7.604;2023-02-21T15:30:03;1.77;;;0.77;;
41343;SDS011;27089;50.022;7.604;2023-02-21T15:32:33;2.67;;;0.90;;
41343;SDS011;27089;50.022;7.604;2023-02-21T15:35:02;0.70;;;0.70;;